createdAt,value
2022-10-28T00:01:27.186Z,10.50
2022-10-28T00:03:57.150Z,10.60
2022-10-28T00:06:35.652Z,10.70
2022-10-28T00:09:09.686Z,10.70
2022-10-28T00:11:39.486Z,10.70
2022-10-28T00:14:07.779Z,10.70
2022-10-28T00:16:42.068Z,10.70
2022-10-28T00:19:12.997Z,10.60
2022-10-28T00:21:42.204Z,10.70
2022-10-28T00:24:13.817Z,10.70
2022-10-28T00:26:42.451Z,10.70
2022-10-28T00:29:13.073Z,10.80
2022-10-28T00:31:40.923Z,10.80
2022-10-28T00:34:12.186Z,10.80
2022-10-28T00:36:43.836Z,10.90
2022-10-28T00:39:18.496Z,10.80
2022-10-28T00:41:53.007Z,10.70
2022-10-28T00:44:41.606Z,10.70
2022-10-28T00:47:31.799Z,10.70
2022-10-28T00:50:10.693Z,10.70
2022-10-28T00:52:40.677Z,10.70
2022-10-28T00:55:09.066Z,10.60
2022-10-28T00:57:38.280Z,10.60
2022-10-28T01:00:07.774Z,10.60
2022-10-28T01:02:43.429Z,10.60
2022-10-28T01:05:15.347Z,10.60
2022-10-28T01:07:43.117Z,10.60
2022-10-28T01:10:11.579Z,10.70
2022-10-28T01:13:05.879Z,10.50
2022-10-28T01:16:06.973Z,10.50
2022-10-28T01:18:36.685Z,10.50
2022-10-28T01:21:27.006Z,10.60
2022-10-28T01:24:15.334Z,10.50
2022-10-28T01:26:51.962Z,10.40
2022-10-28T01:29:26.513Z,10.30
2022-10-28T01:32:30.232Z,10.30
2022-10-28T01:35:09.153Z,10.30
2022-10-28T01:37:58.322Z,10.40
2022-10-28T01:40:45.020Z,10.40
2022-10-28T01:43:26.481Z,10.40
2022-10-28T01:46:05.902Z,10.30
2022-10-28T01:48:52.212Z,10.20
2022-10-28T01:51:26.411Z,10.30
2022-10-28T01:53:57.091Z,10.20
2022-10-28T01:56:30.445Z,10.10
2022-10-28T01:59:00.654Z,10.20
2022-10-28T02:01:32.112Z,10.30
2022-10-28T02:03:59.966Z,10.30
2022-10-28T02:06:31.790Z,10.30
2022-10-28T02:09:14.992Z,10.40
2022-10-28T02:12:13.044Z,10.50
2022-10-28T02:15:30.950Z,10.30
2022-10-28T02:18:24.506Z,10.20
2022-10-28T02:21:01.727Z,10.20
2022-10-28T02:23:56.193Z,10.10
2022-10-28T02:26:46.794Z,10.00
2022-10-28T02:29:28.613Z,10.10
2022-10-28T02:32:02.480Z,10.00
2022-10-28T02:34:36.983Z,10.00
2022-10-28T02:37:13.313Z,9.90
2022-10-28T02:39:46.766Z,10.00
2022-10-28T02:42:29.272Z,10.00
2022-10-28T02:45:12.352Z,10.00
2022-10-28T02:47:43.878Z,10.00
2022-10-28T02:50:15.787Z,10.00
2022-10-28T02:52:50.106Z,9.90
2022-10-28T02:55:21.318Z,10.00
2022-10-28T02:57:49.337Z,10.00
2022-10-28T03:00:20.066Z,10.00
2022-10-28T03:02:49.893Z,10.00
2022-10-28T03:05:18.183Z,10.00
2022-10-28T03:07:45.632Z,10.10
2022-10-28T03:10:20.636Z,10.10
2022-10-28T03:12:48.066Z,10.20
2022-10-28T03:15:15.234Z,10.10
2022-10-28T03:17:42.549Z,10.10
2022-10-28T03:20:12.023Z,10.10
2022-10-28T03:22:39.323Z,10.10
2022-10-28T03:25:06.618Z,10.10
2022-10-28T03:27:34.016Z,10.20
2022-10-28T03:30:01.082Z,10.10
2022-10-28T03:32:28.488Z,10.10
2022-10-28T03:34:55.684Z,10.00
2022-10-28T03:37:22.991Z,10.00
2022-10-28T03:39:52.289Z,10.10
2022-10-28T03:42:19.773Z,10.00
2022-10-28T03:44:49.174Z,10.00
2022-10-28T03:47:16.434Z,9.90
2022-10-28T03:49:45.732Z,9.90
2022-10-28T03:52:17.576Z,10.00
2022-10-28T03:54:44.784Z,10.00
2022-10-28T03:57:12.128Z,9.90
2022-10-28T03:59:39.258Z,9.90
2022-10-28T04:02:06.779Z,9.90
2022-10-28T04:04:33.918Z,9.90
2022-10-28T04:07:04.345Z,9.80
2022-10-28T04:09:33.791Z,9.80
2022-10-28T04:12:01.215Z,9.80
2022-10-28T04:14:28.366Z,9.80
2022-10-28T04:16:58.219Z,9.80
2022-10-28T04:19:27.574Z,9.70
2022-10-28T04:21:54.855Z,9.70
2022-10-28T04:24:24.472Z,9.70
2022-10-28T04:26:53.928Z,9.80
2022-10-28T04:29:21.041Z,9.80
2022-10-28T04:31:52.273Z,9.90
2022-10-28T04:34:19.613Z,10.00
2022-10-28T04:36:46.847Z,10.00
2022-10-28T04:39:16.317Z,10.00
2022-10-28T04:41:43.662Z,10.00
2022-10-28T04:44:10.850Z,9.90
2022-10-28T04:46:38.279Z,9.90
2022-10-28T04:49:05.480Z,9.90
2022-10-28T04:51:32.704Z,9.90
2022-10-28T04:53:59.853Z,9.80
2022-10-28T04:56:31.092Z,9.70
2022-10-28T04:58:58.196Z,9.70
2022-10-28T05:01:25.936Z,9.60
2022-10-28T05:03:55.773Z,9.60
2022-10-28T05:06:23.003Z,9.70
2022-10-28T05:08:52.376Z,9.70
2022-10-28T05:11:19.608Z,9.70
2022-10-28T05:13:49.257Z,9.70
2022-10-28T05:16:16.695Z,9.70
2022-10-28T05:18:46.220Z,9.80
2022-10-28T05:21:13.643Z,9.80
2022-10-28T05:23:40.844Z,9.80
2022-10-28T05:26:10.299Z,9.80
2022-10-28T05:28:39.507Z,9.80
2022-10-28T05:31:07.007Z,9.80
2022-10-28T05:33:36.348Z,9.70
2022-10-28T05:36:04.941Z,9.80
2022-10-28T05:38:32.356Z,9.70
2022-10-28T05:40:59.813Z,9.60
2022-10-28T05:43:31.638Z,9.60
2022-10-28T05:45:59.119Z,9.70
2022-10-28T05:48:30.953Z,9.70
2022-10-28T05:51:00.255Z,9.70
2022-10-28T05:53:32.281Z,9.80
2022-10-28T05:56:03.931Z,9.80
2022-10-28T05:58:33.298Z,9.80
2022-10-28T06:01:00.887Z,9.80
2022-10-28T06:03:31.368Z,9.80
2022-10-28T06:05:59.188Z,9.80
2022-10-28T06:08:28.906Z,9.80
2022-10-28T06:10:57.727Z,9.80
2022-10-28T06:13:24.943Z,9.80
2022-10-28T06:15:54.744Z,9.80
2022-10-28T06:18:22.825Z,9.90
2022-10-28T06:20:58.158Z,10.00
2022-10-28T06:23:28.466Z,10.00
2022-10-28T06:26:00.659Z,10.00
2022-10-28T06:28:28.957Z,10.00
2022-10-28T06:31:06.133Z,10.00
2022-10-28T06:33:34.257Z,10.10
2022-10-28T06:36:04.540Z,10.10
2022-10-28T06:38:31.647Z,10.20
2022-10-28T06:41:01.925Z,10.20
2022-10-28T06:43:31.358Z,10.30
2022-10-28T06:46:04.820Z,10.30
2022-10-28T06:48:35.970Z,10.30
2022-10-28T06:51:03.403Z,10.40
2022-10-28T06:53:33.579Z,10.40
2022-10-28T06:56:05.696Z,10.40
2022-10-28T06:58:35.338Z,10.40
2022-10-28T07:01:06.248Z,10.50
2022-10-28T07:03:48.190Z,10.50
2022-10-28T07:06:17.074Z,10.60
2022-10-28T07:08:49.819Z,10.70
2022-10-28T07:11:19.388Z,10.80
2022-10-28T07:13:48.862Z,10.80
2022-10-28T07:16:16.618Z,10.90
2022-10-28T07:18:46.336Z,10.90
2022-10-28T07:21:18.402Z,10.90
2022-10-28T07:23:48.433Z,11.00
2022-10-28T07:26:15.851Z,11.00
2022-10-28T07:28:47.660Z,11.00
2022-10-28T07:31:17.847Z,11.00
2022-10-28T07:33:45.303Z,11.10
2022-10-28T07:36:15.074Z,11.10
2022-10-28T07:38:42.269Z,11.20
2022-10-28T07:41:14.058Z,11.30
2022-10-28T07:43:43.305Z,11.40
2022-10-28T07:46:15.229Z,11.40
2022-10-28T07:48:42.337Z,11.50
2022-10-28T07:51:12.091Z,11.70
2022-10-28T07:53:39.688Z,11.80
2022-10-28T07:56:13.694Z,12.00
2022-10-28T07:58:44.286Z,12.10
2022-10-28T08:01:15.587Z,12.20
2022-10-28T08:03:43.330Z,12.30
2022-10-28T08:06:19.321Z,12.40
2022-10-28T08:08:52.733Z,12.40
2022-10-28T08:11:25.870Z,12.50
2022-10-28T08:13:57.425Z,12.50
2022-10-28T08:16:24.942Z,12.60
2022-10-28T08:18:53.245Z,12.70
2022-10-28T08:21:20.936Z,12.70
2022-10-28T08:23:48.237Z,12.70
2022-10-28T08:26:17.334Z,12.70
2022-10-28T08:28:51.493Z,12.70
2022-10-28T08:31:23.484Z,12.70
2022-10-28T08:33:53.252Z,12.70
2022-10-28T08:36:23.669Z,12.70
2022-10-28T08:38:50.979Z,12.80
2022-10-28T08:41:38.617Z,12.80
2022-10-28T08:44:20.419Z,12.90
2022-10-28T08:47:07.082Z,13.00
2022-10-28T08:49:39.358Z,13.00
2022-10-28T08:52:25.842Z,13.10
2022-10-28T08:55:00.789Z,13.10
2022-10-28T08:57:51.043Z,13.10
2022-10-28T09:00:46.021Z,13.30
2022-10-28T09:03:22.363Z,13.30
2022-10-28T09:05:56.255Z,13.40
2022-10-28T09:08:28.763Z,13.40
2022-10-28T09:11:10.891Z,13.50
2022-10-28T09:13:52.623Z,13.60
2022-10-28T09:16:54.879Z,13.60
2022-10-28T09:19:50.342Z,13.70
2022-10-28T09:22:21.129Z,13.80
2022-10-28T09:24:53.021Z,13.80
2022-10-28T09:27:51.403Z,13.90
2022-10-28T09:30:48.109Z,14.00
2022-10-28T09:33:47.892Z,14.10
2022-10-28T09:36:25.284Z,14.10
2022-10-28T09:38:58.732Z,14.20
2022-10-28T09:41:40.354Z,14.20
2022-10-28T09:44:28.487Z,14.20
2022-10-28T09:46:59.375Z,14.30
2022-10-28T09:49:34.915Z,14.30
2022-10-28T09:52:08.776Z,14.40
2022-10-28T09:54:40.209Z,14.40
2022-10-28T09:57:08.756Z,14.50
2022-10-28T09:59:37.014Z,14.60
2022-10-28T10:02:26.024Z,14.60
2022-10-28T10:05:01.025Z,14.70
2022-10-28T10:07:40.986Z,14.80
2022-10-28T10:10:28.263Z,14.80
2022-10-28T10:13:02.884Z,14.90
2022-10-28T10:15:35.160Z,15.00
2022-10-28T10:18:06.057Z,15.00
2022-10-28T10:20:46.665Z,15.10
2022-10-28T10:23:28.407Z,15.10
2022-10-28T10:26:06.867Z,15.20
2022-10-28T10:28:42.888Z,15.40
2022-10-28T10:31:22.042Z,15.40
2022-10-28T10:33:52.003Z,15.50
2022-10-28T10:36:23.682Z,15.50
2022-10-28T10:38:57.752Z,15.60
2022-10-28T10:41:42.337Z,15.70
2022-10-28T10:44:22.000Z,15.80
2022-10-28T10:46:55.303Z,15.80
2022-10-28T10:49:25.045Z,15.90
2022-10-28T10:51:56.691Z,15.90
2022-10-28T10:54:30.158Z,16.00
2022-10-28T10:57:17.017Z,16.00
2022-10-28T10:59:49.602Z,16.10
2022-10-28T11:02:32.665Z,16.10
2022-10-28T11:05:06.479Z,16.20
2022-10-28T11:07:45.841Z,16.20
2022-10-28T11:10:28.144Z,16.30
2022-10-28T11:13:03.938Z,16.40
2022-10-28T11:15:34.980Z,16.40
2022-10-28T11:18:16.922Z,16.40
2022-10-28T11:21:00.208Z,16.50
2022-10-28T11:23:51.704Z,16.60
2022-10-28T11:26:21.720Z,16.60
2022-10-28T11:29:00.090Z,16.70
2022-10-28T11:31:51.621Z,16.70
2022-10-28T11:34:25.705Z,16.70
2022-10-28T11:37:10.551Z,16.80
2022-10-28T11:39:44.148Z,16.80
2022-10-28T11:42:34.973Z,16.90
2022-10-28T11:45:29.249Z,16.90
2022-10-28T11:48:14.986Z,16.90
2022-10-28T11:50:59.375Z,16.90
2022-10-28T11:54:05.006Z,17.00
2022-10-28T11:57:01.657Z,17.00
2022-10-28T12:00:09.621Z,17.00
2022-10-28T12:02:58.255Z,17.10
2022-10-28T12:05:53.475Z,17.10
2022-10-28T12:08:26.704Z,17.20
2022-10-28T12:11:19.344Z,17.20
2022-10-28T12:14:16.403Z,17.20
2022-10-28T12:17:12.969Z,17.30
2022-10-28T12:20:04.675Z,17.30
2022-10-28T12:22:49.405Z,17.30
2022-10-28T12:25:25.540Z,17.40
2022-10-28T12:27:57.537Z,17.40
2022-10-28T12:30:31.896Z,17.40
2022-10-28T12:33:15.954Z,17.50
2022-10-28T12:36:12.309Z,17.50
2022-10-28T12:38:49.248Z,17.50
2022-10-28T12:41:22.506Z,17.50
2022-10-28T12:44:04.570Z,17.60
2022-10-28T12:50:00.194Z,17.60
2022-10-28T12:53:01.358Z,17.60
2022-10-28T12:55:32.132Z,17.70
2022-10-28T12:58:22.263Z,17.70
2022-10-28T13:00:55.601Z,17.70
2022-10-28T13:03:24.920Z,17.70
2022-10-28T13:05:57.108Z,17.70
2022-10-28T13:08:37.841Z,17.80
2022-10-28T13:11:58.858Z,17.80
2022-10-28T13:14:58.519Z,17.80
2022-10-28T13:17:52.843Z,17.90
2022-10-28T13:20:26.421Z,17.90
2022-10-28T13:23:31.994Z,18.00
2022-10-28T13:26:26.872Z,18.00
2022-10-28T13:29:02.286Z,18.10
2022-10-28T13:31:45.498Z,18.10
2022-10-28T13:34:17.911Z,18.30
2022-10-28T13:36:58.125Z,18.30
2022-10-28T13:39:39.923Z,18.50
2022-10-28T13:42:12.835Z,18.40
2022-10-28T13:45:02.263Z,18.50
2022-10-28T13:47:34.166Z,18.60
2022-10-28T13:50:08.804Z,18.60
2022-10-28T13:52:44.290Z,18.60
2022-10-28T13:55:26.490Z,18.70
2022-10-28T13:58:05.091Z,18.80
2022-10-28T14:00:37.698Z,18.70
2022-10-28T14:03:17.340Z,18.70
2022-10-28T14:05:45.060Z,18.70
2022-10-28T14:08:24.511Z,18.80
2022-10-28T14:11:22.766Z,18.70
2022-10-28T14:13:55.684Z,18.70
2022-10-28T14:16:39.229Z,18.70
2022-10-28T14:19:10.307Z,18.60
2022-10-28T14:22:02.515Z,18.60
2022-10-28T14:24:32.134Z,18.50
2022-10-28T14:27:12.249Z,18.40
2022-10-28T14:30:04.520Z,18.30
2022-10-28T14:32:32.255Z,18.20
2022-10-28T14:35:02.471Z,18.10
2022-10-28T14:38:01.785Z,18.10
2022-10-28T14:40:55.455Z,18.00
2022-10-28T14:43:30.781Z,17.90
2022-10-28T14:46:04.607Z,17.80
2022-10-28T14:48:44.765Z,17.70
2022-10-28T14:51:25.453Z,17.70
2022-10-28T14:53:58.333Z,17.60
2022-10-28T14:56:29.187Z,17.60
2022-10-28T14:59:23.445Z,17.60
2022-10-28T15:01:59.681Z,17.50
2022-10-28T15:04:28.279Z,17.50
2022-10-28T15:06:56.805Z,17.50
2022-10-28T15:09:28.898Z,17.40
2022-10-28T15:12:06.583Z,17.40
2022-10-28T15:14:42.516Z,17.30
2022-10-28T15:17:28.420Z,17.30
2022-10-28T15:19:58.495Z,17.20
2022-10-28T15:22:32.215Z,17.10
2022-10-28T15:25:05.376Z,17.10
2022-10-28T15:27:36.642Z,17.00
2022-10-28T15:30:24.877Z,17.00
2022-10-28T15:32:54.534Z,16.90
2022-10-28T15:35:30.553Z,16.90
2022-10-28T15:38:02.106Z,16.90
2022-10-28T15:40:34.312Z,16.90
2022-10-28T15:43:18.908Z,16.80
2022-10-28T15:45:54.170Z,16.80
2022-10-28T15:48:27.813Z,16.80
2022-10-28T15:51:16.668Z,16.80
2022-10-28T15:53:47.980Z,16.70
2022-10-28T15:56:15.012Z,16.70
2022-10-28T15:58:45.209Z,16.70
2022-10-28T16:01:35.693Z,16.60
2022-10-28T16:04:25.181Z,16.60
2022-10-28T16:06:58.103Z,16.60
2022-10-28T16:09:33.018Z,16.50
2022-10-28T16:12:21.345Z,16.50
2022-10-28T16:14:56.128Z,16.50
2022-10-28T16:17:27.118Z,16.40
2022-10-28T16:20:02.357Z,16.30
2022-10-28T16:22:33.797Z,16.40
2022-10-28T16:25:01.229Z,16.30
2022-10-28T16:27:31.998Z,16.30
2022-10-28T16:30:01.816Z,16.20
2022-10-28T16:32:54.922Z,16.20
2022-10-28T16:35:24.355Z,16.20
2022-10-28T16:37:55.823Z,16.20
2022-10-28T16:40:50.239Z,16.10
2022-10-28T16:43:21.143Z,16.10
2022-10-28T16:45:54.648Z,16.00
2022-10-28T16:48:24.858Z,16.00
2022-10-28T16:50:55.198Z,16.00
2022-10-28T16:53:25.169Z,15.90
2022-10-28T16:55:54.197Z,15.90
2022-10-28T16:58:24.615Z,15.80
2022-10-28T17:00:59.689Z,15.80
2022-10-28T17:03:29.317Z,15.80
2022-10-28T17:05:56.720Z,15.70
2022-10-28T17:08:42.523Z,15.70
2022-10-28T17:11:16.697Z,15.70
2022-10-28T17:13:46.380Z,15.60
2022-10-28T17:16:13.969Z,15.60
2022-10-28T17:18:44.244Z,15.60
2022-10-28T17:21:11.642Z,15.60
2022-10-28T17:23:40.003Z,15.60
2022-10-28T17:26:07.476Z,15.60
2022-10-28T17:28:34.615Z,15.60
2022-10-28T17:31:08.653Z,15.60
2022-10-28T17:33:36.296Z,15.50
2022-10-28T17:36:05.995Z,15.50
2022-10-28T17:38:35.877Z,15.40
2022-10-28T17:41:03.267Z,15.40
2022-10-28T17:43:30.555Z,15.40
2022-10-28T17:46:06.041Z,15.40
2022-10-28T17:48:36.697Z,15.40
2022-10-28T17:51:06.677Z,15.40
2022-10-28T17:53:33.900Z,15.30
2022-10-28T17:56:04.927Z,15.30
2022-10-28T17:58:35.171Z,15.30
2022-10-28T18:01:05.630Z,15.20
2022-10-28T18:03:38.244Z,15.20
2022-10-28T18:06:13.577Z,15.20
2022-10-28T18:08:45.039Z,15.20
2022-10-28T18:11:14.747Z,15.20
2022-10-28T18:13:49.024Z,15.20
2022-10-28T18:16:24.333Z,15.10
2022-10-28T18:18:53.375Z,15.10
2022-10-28T18:21:22.852Z,15.10
2022-10-28T18:23:54.091Z,15.10
2022-10-28T18:26:21.886Z,15.10
2022-10-28T18:28:51.497Z,15.10
2022-10-28T18:31:20.418Z,15.00
2022-10-28T18:33:52.619Z,15.00
2022-10-28T18:36:23.790Z,15.00
2022-10-28T18:38:53.817Z,15.00
2022-10-28T18:41:23.712Z,14.90
2022-10-28T18:43:56.978Z,14.90
2022-10-28T18:46:25.625Z,14.90
2022-10-28T18:51:28.136Z,14.90
2022-10-28T18:53:57.646Z,14.90
2022-10-28T18:56:31.246Z,15.00
2022-10-28T18:59:03.473Z,15.00
2022-10-28T19:01:31.940Z,15.00
2022-10-28T19:04:04.297Z,15.00
2022-10-28T19:06:40.152Z,15.00
2022-10-28T19:09:10.104Z,15.10
2022-10-28T19:11:37.568Z,15.10
2022-10-28T19:14:10.021Z,15.10
2022-10-28T19:16:39.479Z,15.10
2022-10-28T19:19:07.096Z,15.10
2022-10-28T19:21:37.472Z,15.10
2022-10-28T19:24:05.415Z,15.10
2022-10-28T19:26:35.652Z,15.00
2022-10-28T19:29:08.135Z,15.00
2022-10-28T19:31:40.756Z,15.00
2022-10-28T19:34:16.380Z,14.90
2022-10-28T19:36:46.034Z,14.90
2022-10-28T19:39:13.410Z,14.90
2022-10-28T19:41:40.911Z,14.90
2022-10-28T19:44:08.581Z,14.80
2022-10-28T19:46:38.225Z,14.80
2022-10-28T19:49:07.873Z,14.80
2022-10-28T19:51:38.557Z,14.80
2022-10-28T19:54:11.136Z,14.80
2022-10-28T19:56:39.229Z,14.80
2022-10-28T19:59:09.181Z,14.80
2022-10-28T20:01:38.889Z,14.80
2022-10-28T20:04:10.062Z,14.80
2022-10-28T20:06:40.897Z,14.70
2022-10-28T20:09:11.537Z,14.80
2022-10-28T20:11:39.459Z,14.80
2022-10-28T20:14:13.918Z,14.80
2022-10-28T20:16:46.253Z,14.80
2022-10-28T20:19:15.069Z,14.80
2022-10-28T20:21:45.183Z,14.70
2022-10-28T20:24:22.362Z,14.70
2022-10-28T20:26:50.034Z,14.70
2022-10-28T20:29:19.457Z,14.70
2022-10-28T20:31:53.912Z,14.70
2022-10-28T20:34:28.570Z,14.70
2022-10-28T20:37:03.052Z,14.70
2022-10-28T20:39:32.895Z,14.60
2022-10-28T20:42:00.122Z,14.70
2022-10-28T20:44:29.741Z,14.60
2022-10-28T20:46:57.073Z,14.70
2022-10-28T20:49:24.441Z,14.70
2022-10-28T20:51:55.207Z,14.70
2022-10-28T20:54:27.877Z,14.70
2022-10-28T20:57:03.100Z,14.70
2022-10-28T20:59:35.828Z,14.60
2022-10-28T21:02:02.987Z,14.50
2022-10-28T21:04:30.432Z,14.50
2022-10-28T21:06:57.493Z,14.50
2022-10-28T21:09:27.101Z,14.40
2022-10-28T21:11:59.562Z,14.40
2022-10-28T21:14:26.908Z,14.40
2022-10-28T21:16:54.113Z,14.30
2022-10-28T21:19:21.655Z,14.30
2022-10-28T21:21:48.760Z,14.30
2022-10-28T21:24:16.041Z,14.20
2022-10-28T21:26:46.061Z,14.20
2022-10-28T21:29:17.999Z,14.20
2022-10-28T21:31:45.164Z,14.20
2022-10-28T21:34:17.193Z,14.10
2022-10-28T21:36:49.001Z,14.10
2022-10-28T21:39:18.965Z,14.00
2022-10-28T21:41:48.940Z,14.00
2022-10-28T21:44:16.340Z,14.00
2022-10-28T21:46:43.450Z,13.90
2022-10-28T21:49:13.163Z,13.90
2022-10-28T21:51:45.230Z,13.90
2022-10-28T21:54:16.882Z,13.90
2022-10-28T21:56:45.155Z,13.90
2022-10-28T21:59:12.396Z,13.80
2022-10-28T22:01:42.030Z,13.80
2022-10-28T22:04:11.697Z,13.70
2022-10-28T22:06:38.983Z,13.70
2022-10-28T22:09:06.100Z,13.70
2022-10-28T22:11:33.435Z,13.60
2022-10-28T22:14:04.683Z,13.60
2022-10-28T22:16:35.068Z,13.60
2022-10-28T22:19:08.037Z,13.60
2022-10-28T22:21:40.437Z,13.60
2022-10-28T22:24:08.045Z,13.60
2022-10-28T22:26:37.321Z,13.60
2022-10-28T22:29:05.001Z,13.50
2022-10-28T22:31:34.513Z,13.50
2022-10-28T22:34:08.713Z,13.50
2022-10-28T22:36:36.927Z,13.50
2022-10-28T22:39:06.729Z,13.50
2022-10-28T22:41:36.232Z,13.50
2022-10-28T22:44:04.870Z,13.50
2022-10-28T22:46:36.661Z,13.50
2022-10-28T22:49:07.021Z,13.50
2022-10-28T22:51:36.680Z,13.50
2022-10-28T22:54:04.273Z,13.50
2022-10-28T22:56:33.507Z,13.50
2022-10-28T22:59:02.028Z,13.50
2022-10-28T23:01:32.311Z,13.50
2022-10-28T23:04:08.965Z,13.50
2022-10-28T23:06:36.168Z,13.40
2022-10-28T23:09:03.582Z,13.50
2022-10-28T23:11:35.688Z,13.40
2022-10-28T23:14:05.212Z,13.40
2022-10-28T23:16:32.573Z,13.40
2022-10-28T23:19:02.816Z,13.40
2022-10-28T23:21:32.306Z,13.40
2022-10-28T23:24:00.662Z,13.40
2022-10-28T23:26:29.605Z,13.30
2022-10-28T23:28:59.222Z,13.40
2022-10-28T23:31:27.411Z,13.30
2022-10-28T23:33:59.118Z,13.30
2022-10-28T23:36:26.499Z,13.30
2022-10-28T23:38:56.568Z,13.30
2022-10-28T23:41:23.728Z,13.30
2022-10-28T23:43:51.173Z,13.30
2022-10-28T23:46:18.623Z,13.30
2022-10-28T23:48:48.146Z,13.30
2022-10-28T23:51:15.616Z,13.20
2022-10-28T23:53:42.665Z,13.20
2022-10-28T23:56:11.963Z,13.10
2022-10-28T23:58:41.951Z,13.10
